SLVR/VVI METAR and TAF weather

Enter ICAO airport designator
Station Type Date Time Source
SLVR METAR 2022/07/01 01:00 UTC NOAA

SLVR 010100Z 32004KT 9999 BKN070 21/19 Q1013


Station Type Date Time Source
SLVR Decoded METAR 2022/07/01 01:00 UTC NOAA

Viru-Viru, Bolivia (SLVR) 17-38S 063-08W
Jun 30, 2022 - 09:00 PM EDT / 2022.07.01 0100 UTC
Wind: from the NW (320 degrees) at 5 MPH (4 KT):0
Visibility: greater than 7 mile(s):0
Sky conditions: mostly cloudy
Temperature: 69 F (21 C)
Dew Point: 66 F (19 C)
Relative Humidity: 88%
Pressure (altimeter): 29.91 in. Hg (1013 hPa)
ob: SLVR 010100Z 32004KT 9999 BKN070 21/19 Q1013
cycle: 1

Station Type Date Time Source
SLVR TAF 2022/06/30 18:36 UTC NOAA

TAF TAF SLVR 301600Z 3018/0118 34020G35KT 9999 FEW020 TX30/3020Z TN17/0110Z
BECMG 3023/0102 35010KT 8000 NSC
BECMG 0115/0118 34025G40 SCT020

Example: see airport list